Terminal Aerodrome Forecast
Issued by NWS

Home | Current Version | Previous Version | Text Only | Print | Product List | Glossary On
Versions: 1 2 3 4 5 6 7 8 9 10 11 12
000
FTUS45 KTFX 181741
TAFHLN
TAF
KHLN 181741Z 1818/1918 VRB05KT P6SM SCT120
     FM190000 23015G25KT P6SM BKN120
     FM190400 20010G20KT P6SM SKC=

USA.gov is the U.S. government's official web portal to all federal, state and local government web resources and services.